Time;durP1;ratioP1;P1;durP2;ratioP2;P2;SDS_P1;SDS_P2;PMS_P1;PMS_P2;Temp;Humidity;BMP_temperature;BMP_pressure;BME280_temperature;BME280_humidity;BME280_pressure;Samples;Min_cycle;Max_cycle;Signal;HPM_P1;HPM_P2
2022/10/20 00:00:43;;;;;;;12.70;5.85;;;;;;;;;;4962973;28;20042;-64
2022/10/20 00:03:09;;;;;;;12.55;6.45;;;;;;;;;;4940624;28;20054;-64
2022/10/20 00:05:35;;;;;;;14.70;6.28;;;;;;;;;;4959254;28;20414;-64
2022/10/20 00:08:01;;;;;;;14.10;6.75;;;;;;;;;;4959044;28;20133;-64
2022/10/20 00:10:27;;;;;;;10.90;6.57;;;;;;;;;;4943390;28;20074;-64
2022/10/20 00:12:53;;;;;;;12.85;6.10;;;;;;;;;;4962425;28;20134;-64
2022/10/20 00:15:19;;;;;;;13.48;6.75;;;;;;;;;;4960887;28;20514;-64
2022/10/20 00:17:46;;;;;;;14.30;6.80;;;;;;;;;;4961088;28;20398;-64
2022/10/20 00:20:12;;;;;;;11.50;6.60;;;;;;;;;;4962988;28;20043;-64
2022/10/20 00:22:38;;;;;;;17.00;6.40;;;;;;;;;;4962296;28;20103;-64
2022/10/20 00:25:04;;;;;;;16.13;6.18;;;;;;;;;;4962233;28;20039;-64
2022/10/20 00:27:30;;;;;;;11.18;5.45;;;;;;;;;;4962680;28;20145;-64
2022/10/20 00:29:57;;;;;;;14.23;6.05;;;;;;;;;;4962223;28;20217;-64
2022/10/20 00:32:23;;;;;;;12.32;6.57;;;;;;;;;;4962991;28;20114;-64
2022/10/20 00:34:49;;;;;;;13.98;6.25;;;;;;;;;;4961028;28;20045;-64
2022/10/20 00:37:15;;;;;;;17.77;6.22;;;;;;;;;;4959582;28;20050;-65
2022/10/20 00:39:41;;;;;;;14.35;6.43;;;;;;;;;;4961202;28;20094;-64
2022/10/20 00:42:10;;;;;;;16.52;5.93;;;;;;;;;;4956825;28;20474;-64
2022/10/20 00:44:48;;;;;;;11.15;5.93;;;;;;;;;;4960481;28;20042;-64
2022/10/20 00:47:24;;;;;;;11.63;5.88;;;;;;;;;;4957877;28;20538;-64
2022/10/20 00:49:51;;;;;;;11.02;6.00;;;;;;;;;;4943956;28;20047;-64
2022/10/20 00:52:18;;;;;;;13.32;6.43;;;;;;;;;;4943055;28;20521;-64
2022/10/20 00:54:44;;;;;;;16.42;6.53;;;;;;;;;;4960393;28;20038;-64
2022/10/20 00:57:10;;;;;;;10.55;5.80;;;;;;;;;;4937508;28;20049;-64
2022/10/20 00:59:37;;;;;;;12.35;6.25;;;;;;;;;;4958378;28;20047;-64
2022/10/20 01:02:04;;;;;;;14.20;5.97;;;;;;;;;;4939348;28;20039;-64
2022/10/20 01:04:31;;;;;;;13.52;6.32;;;;;;;;;;4930844;28;20571;-64
2022/10/20 01:06:58;;;;;;;10.77;6.10;;;;;;;;;;4954544;28;20043;-64
2022/10/20 01:09:24;;;;;;;11.40;6.43;;;;;;;;;;4955175;28;20050;-64
2022/10/20 01:11:59;;;;;;;10.65;6.13;;;;;;;;;;4944336;28;20050;-64
2022/10/20 01:14:40;;;;;;;15.45;6.25;;;;;;;;;;4957090;28;20046;-64
2022/10/20 01:17:07;;;;;;;13.38;5.85;;;;;;;;;;4956594;28;20047;-64
2022/10/20 01:19:47;;;;;;;13.32;6.70;;;;;;;;;;4938529;28;20046;-64
2022/10/20 01:22:32;;;;;;;12.20;6.28;;;;;;;;;;4937170;28;20161;-64
2022/10/20 01:25:13;;;;;;;10.32;5.82;;;;;;;;;;4955764;28;20057;-66
2022/10/20 01:27:42;;;;;;;12.65;6.30;;;;;;;;;;4954960;28;20051;-64
2022/10/20 01:30:12;;;;;;;13.82;5.65;;;;;;;;;;4957189;28;20452;-65
2022/10/20 01:32:58;;;;;;;18.98;7.10;;;;;;;;;;4951669;28;20063;-64
2022/10/20 01:35:41;;;;;;;20.00;6.53;;;;;;;;;;4954890;28;20439;-64
2022/10/20 01:38:23;;;;;;;14.25;6.22;;;;;;;;;;4955256;28;20087;-64
2022/10/20 01:41:01;;;;;;;14.07;6.93;;;;;;;;;;4955294;28;20046;-64
2022/10/20 01:43:29;;;;;;;13.07;6.00;;;;;;;;;;4958406;28;20043;-64
2022/10/20 01:45:57;;;;;;;18.27;6.65;;;;;;;;;;4958233;28;20090;-64
2022/10/20 01:48:25;;;;;;;12.38;6.15;;;;;;;;;;4971321;28;20050;-64
2022/10/20 01:50:51;;;;;;;15.65;6.60;;;;;;;;;;4956434;28;20039;-64
2022/10/20 01:53:17;;;;;;;15.00;6.25;;;;;;;;;;4961116;28;20042;-64
2022/10/20 01:55:44;;;;;;;10.13;5.95;;;;;;;;;;4961724;28;20511;-64
2022/10/20 01:58:28;;;;;;;15.98;6.55;;;;;;;;;;4960485;28;20047;-64
2022/10/20 02:00:56;;;;;;;13.00;5.95;;;;;;;;;;4960282;28;20074;-64
2022/10/20 02:03:31;;;;;;;13.27;5.68;;;;;;;;;;4960113;28;20054;-64
2022/10/20 02:06:04;;;;;;;13.90;6.35;;;;;;;;;;4958944;28;20054;-64
2022/10/20 02:08:36;;;;;;;12.88;6.72;;;;;;;;;;4953669;28;20082;-64
2022/10/20 02:11:03;;;;;;;13.60;6.07;;;;;;;;;;4962731;28;20047;-64
2022/10/20 02:13:30;;;;;;;15.32;6.82;;;;;;;;;;4959047;28;20035;-64
2022/10/20 02:15:59;;;;;;;12.45;6.35;;;;;;;;;;4961781;28;20049;-64
2022/10/20 02:18:30;;;;;;;15.38;6.65;;;;;;;;;;4961510;28;20059;-64
2022/10/20 02:20:58;;;;;;;10.55;5.82;;;;;;;;;;4954800;28;20552;-64
2022/10/20 02:23:24;;;;;;;12.10;6.55;;;;;;;;;;4958881;28;20039;-64
2022/10/20 02:25:52;;;;;;;20.90;7.78;;;;;;;;;;4960625;28;20117;-64
2022/10/20 02:28:19;;;;;;;15.75;6.10;;;;;;;;;;4959810;28;20046;-66
2022/10/20 02:30:47;;;;;;;11.85;5.80;;;;;;;;;;4961686;28;20058;-64
2022/10/20 02:33:14;;;;;;;13.52;6.03;;;;;;;;;;4960193;28;20054;-64
2022/10/20 02:35:42;;;;;;;18.77;6.05;;;;;;;;;;4961192;28;20090;-64
2022/10/20 02:38:08;;;;;;;16.20;6.40;;;;;;;;;;4960441;28;20058;-64
2022/10/20 02:40:34;;;;;;;15.18;6.13;;;;;;;;;;4961269;28;20089;-64
2022/10/20 02:43:00;;;;;;;11.75;5.85;;;;;;;;;;4957892;28;20462;-64
2022/10/20 02:45:26;;;;;;;14.05;5.97;;;;;;;;;;4960309;28;20435;-64
2022/10/20 02:47:52;;;;;;;14.27;6.63;;;;;;;;;;4958756;28;20074;-64
2022/10/20 02:50:18;;;;;;;11.80;5.57;;;;;;;;;;4959936;28;20058;-64
2022/10/20 02:52:45;;;;;;;17.52;6.18;;;;;;;;;;4961179;28;20054;-64
2022/10/20 02:55:11;;;;;;;13.35;5.90;;;;;;;;;;4962126;28;20039;-64
2022/10/20 02:57:37;;;;;;;14.40;5.78;;;;;;;;;;4962269;28;20390;-64
2022/10/20 03:00:04;;;;;;;13.32;6.95;;;;;;;;;;4955722;28;20142;-64
2022/10/20 03:02:30;;;;;;;14.20;6.18;;;;;;;;;;4955797;28;20499;-64
2022/10/20 03:04:56;;;;;;;12.48;6.03;;;;;;;;;;4959988;28;20110;-64
2022/10/20 03:07:22;;;;;;;14.60;6.45;;;;;;;;;;4961436;28;20156;-65
2022/10/20 03:09:49;;;;;;;15.85;6.68;;;;;;;;;;4960010;28;20414;-64
2022/10/20 03:12:15;;;;;;;15.98;6.72;;;;;;;;;;4960399;28;20046;-64
2022/10/20 03:14:41;;;;;;;12.52;6.18;;;;;;;;;;4960240;28;20173;-64
2022/10/20 03:17:08;;;;;;;15.55;6.40;;;;;;;;;;4958600;28;20047;-64
2022/10/20 03:19:34;;;;;;;9.85;5.45;;;;;;;;;;4957036;28;20043;-65
2022/10/20 03:22:00;;;;;;;13.68;6.30;;;;;;;;;;4960670;28;20049;-64
2022/10/20 03:24:26;;;;;;;9.25;6.20;;;;;;;;;;4958834;28;20094;-64
2022/10/20 03:26:52;;;;;;;17.65;6.05;;;;;;;;;;4957042;28;20074;-64
2022/10/20 03:29:18;;;;;;;12.85;6.35;;;;;;;;;;4959825;28;20450;-64
2022/10/20 03:31:45;;;;;;;11.65;6.65;;;;;;;;;;4953116;28;22114;-64
2022/10/20 03:34:11;;;;;;;13.48;6.22;;;;;;;;;;4956668;28;21204;-64
2022/10/20 03:36:37;;;;;;;11.75;6.97;;;;;;;;;;4956023;28;20047;-64
2022/10/20 03:39:03;;;;;;;14.73;6.10;;;;;;;;;;4951897;28;20093;-64
2022/10/20 03:41:30;;;;;;;16.83;6.75;;;;;;;;;;4954032;28;20062;-64
2022/10/20 03:43:56;;;;;;;17.50;6.85;;;;;;;;;;4960428;28;20043;-64
2022/10/20 03:46:22;;;;;;;12.75;7.10;;;;;;;;;;4960090;28;20050;-64
2022/10/20 03:48:48;;;;;;;13.70;7.18;;;;;;;;;;4960166;28;20047;-64
2022/10/20 03:51:14;;;;;;;16.65;6.55;;;;;;;;;;4957025;28;20039;-64
2022/10/20 03:53:41;;;;;;;10.43;6.03;;;;;;;;;;4957516;28;20035;-65
2022/10/20 03:56:07;;;;;;;12.38;6.60;;;;;;;;;;4943149;28;20061;-64
2022/10/20 03:58:34;;;;;;;12.98;6.88;;;;;;;;;;4961195;28;20050;-64
2022/10/20 04:01:00;;;;;;;11.48;6.90;;;;;;;;;;4937382;28;20054;-64
2022/10/20 04:03:26;;;;;;;18.95;7.47;;;;;;;;;;4959337;28;20055;-64
2022/10/20 04:05:52;;;;;;;16.38;7.80;;;;;;;;;;4938818;28;20055;-64
2022/10/20 04:08:19;;;;;;;13.85;7.15;;;;;;;;;;4956237;28;20541;-64
2022/10/20 04:10:45;;;;;;;10.05;7.35;;;;;;;;;;4959836;28;20399;-64
2022/10/20 04:13:11;;;;;;;16.67;7.97;;;;;;;;;;4960887;28;20501;-64
2022/10/20 04:15:37;;;;;;;19.73;7.57;;;;;;;;;;4962841;28;20046;-64
2022/10/20 04:18:03;;;;;;;17.20;7.05;;;;;;;;;;4964926;28;20054;-64
2022/10/20 04:20:29;;;;;;;13.52;7.88;;;;;;;;;;4945603;28;20132;-64
2022/10/20 04:22:56;;;;;;;12.23;7.70;;;;;;;;;;4944360;28;20540;-64
2022/10/20 04:25:22;;;;;;;12.32;7.65;;;;;;;;;;4948768;28;20045;-64
2022/10/20 04:27:48;;;;;;;13.18;7.68;;;;;;;;;;4943074;28;20050;-64
2022/10/20 04:30:14;;;;;;;14.48;8.32;;;;;;;;;;4943905;28;20050;-64
2022/10/20 04:32:40;;;;;;;12.90;7.60;;;;;;;;;;4956527;28;20051;-64
2022/10/20 04:35:07;;;;;;;15.15;8.13;;;;;;;;;;4958559;28;20196;-64
2022/10/20 04:37:33;;;;;;;16.05;8.65;;;;;;;;;;4957339;28;20043;-64
2022/10/20 04:39:59;;;;;;;11.93;8.13;;;;;;;;;;4959649;28;20412;-64
2022/10/20 04:42:25;;;;;;;17.42;8.35;;;;;;;;;;4960024;28;20189;-64
2022/10/20 04:44:51;;;;;;;16.42;9.23;;;;;;;;;;4960153;28;20054;-64
2022/10/20 04:47:17;;;;;;;15.75;9.07;;;;;;;;;;4959313;28;20085;-65
2022/10/20 04:49:44;;;;;;;16.13;9.38;;;;;;;;;;4958520;28;20043;-64
2022/10/20 04:52:10;;;;;;;16.98;8.65;;;;;;;;;;4961688;28;20047;-64
2022/10/20 04:54:36;;;;;;;13.45;8.40;;;;;;;;;;4960450;28;20043;-64
2022/10/20 04:57:03;;;;;;;14.88;9.30;;;;;;;;;;4960863;28;20051;-64
2022/10/20 04:59:29;;;;;;;14.75;9.15;;;;;;;;;;4971636;28;20058;-64
2022/10/20 05:01:55;;;;;;;17.60;9.30;;;;;;;;;;4973931;28;20058;-64
2022/10/20 05:04:21;;;;;;;14.82;8.73;;;;;;;;;;4960933;28;20126;-64
2022/10/20 05:06:48;;;;;;;17.73;9.57;;;;;;;;;;4959645;28;20086;-64
2022/10/20 05:09:14;;;;;;;15.50;9.65;;;;;;;;;;4957965;28;20129;-64
2022/10/20 05:11:41;;;;;;;20.95;10.48;;;;;;;;;;4958636;28;20046;-64
2022/10/20 05:14:07;;;;;;;16.20;8.98;;;;;;;;;;4962919;28;20035;-65
2022/10/20 05:16:34;;;;;;;16.85;9.60;;;;;;;;;;4962463;28;20063;-64
2022/10/20 05:19:00;;;;;;;16.38;10.20;;;;;;;;;;4964495;28;20667;-64
2022/10/20 05:21:28;;;;;;;14.80;9.77;;;;;;;;;;4962282;28;20137;-64
2022/10/20 05:23:55;;;;;;;18.70;9.48;;;;;;;;;;4962784;28;20075;-64
2022/10/20 05:26:21;;;;;;;20.50;9.68;;;;;;;;;;4960967;28;21029;-64
2022/10/20 05:28:49;;;;;;;20.33;9.77;;;;;;;;;;4957636;28;20047;-64
2022/10/20 05:31:16;;;;;;;16.45;9.70;;;;;;;;;;4959066;28;20050;-65
2022/10/20 05:33:45;;;;;;;14.25;10.23;;;;;;;;;;4957835;28;20043;-69
2022/10/20 05:36:12;;;;;;;18.70;10.13;;;;;;;;;;4957058;28;20086;-64
2022/10/20 05:38:39;;;;;;;18.05;11.25;;;;;;;;;;4943256;28;20073;-64
2022/10/20 05:41:10;;;;;;;16.67;10.13;;;;;;;;;;4941831;28;20121;-65
2022/10/20 05:43:36;;;;;;;19.65;10.32;;;;;;;;;;4960729;28;20126;-64
2022/10/20 05:46:02;;;;;;;15.18;10.43;;;;;;;;;;4960411;28;20164;-64
2022/10/20 05:48:29;;;;;;;19.25;11.15;;;;;;;;;;4944545;28;20141;-64
2022/10/20 05:50:55;;;;;;;15.70;10.38;;;;;;;;;;4947965;28;20148;-64
2022/10/20 05:53:21;;;;;;;18.48;11.57;;;;;;;;;;4945312;28;20138;-64
2022/10/20 05:55:48;;;;;;;20.55;11.15;;;;;;;;;;4946396;28;20043;-64
2022/10/20 05:58:14;;;;;;;16.27;11.20;;;;;;;;;;4947720;28;20046;-64
2022/10/20 06:00:41;;;;;;;20.65;12.00;;;;;;;;;;4951897;28;20493;-64
2022/10/20 06:03:08;;;;;;;23.17;12.52;;;;;;;;;;4945028;28;20050;-64
2022/10/20 06:05:34;;;;;;;18.65;11.43;;;;;;;;;;4944406;28;20478;-63
2022/10/20 06:08:00;;;;;;;17.98;12.18;;;;;;;;;;4937164;28;20101;-64
2022/10/20 06:10:26;;;;;;;18.75;12.73;;;;;;;;;;4961890;28;20077;-64
2022/10/20 06:12:52;;;;;;;24.02;12.98;;;;;;;;;;4964754;28;20066;-64
2022/10/20 06:15:19;;;;;;;27.35;12.25;;;;;;;;;;4961210;28;20073;-64
2022/10/20 06:17:46;;;;;;;16.58;12.75;;;;;;;;;;4966140;28;20047;-64
2022/10/20 06:20:12;;;;;;;16.60;12.57;;;;;;;;;;4948634;28;20043;-64
2022/10/20 06:22:38;;;;;;;20.40;12.73;;;;;;;;;;4966364;28;20046;-64
2022/10/20 06:25:05;;;;;;;18.58;12.85;;;;;;;;;;4946930;28;20039;-64
2022/10/20 06:27:31;;;;;;;18.42;12.73;;;;;;;;;;4949376;28;20051;-64
2022/10/20 06:29:57;;;;;;;21.65;13.40;;;;;;;;;;4969220;28;20113;-65
2022/10/20 06:32:23;;;;;;;18.42;12.27;;;;;;;;;;4961590;28;20057;-65
2022/10/20 06:34:49;;;;;;;20.73;14.35;;;;;;;;;;4967906;28;20043;-64
2022/10/20 06:37:16;;;;;;;20.77;13.18;;;;;;;;;;4965886;28;20498;-64
2022/10/20 06:39:42;;;;;;;18.17;12.57;;;;;;;;;;4966983;28;20046;-64
2022/10/20 06:42:08;;;;;;;17.42;13.15;;;;;;;;;;4963233;28;20149;-64
2022/10/20 06:44:34;;;;;;;18.90;13.93;;;;;;;;;;4967185;28;20123;-64
2022/10/20 06:47:00;;;;;;;23.33;13.70;;;;;;;;;;4961585;28;20499;-63
2022/10/20 06:49:26;;;;;;;18.77;13.38;;;;;;;;;;4960683;28;20102;-64
2022/10/20 06:51:53;;;;;;;19.83;13.00;;;;;;;;;;4966062;28;20057;-64
2022/10/20 06:54:19;;;;;;;19.73;13.45;;;;;;;;;;4964807;28;20051;-64
2022/10/20 06:56:45;;;;;;;20.17;13.02;;;;;;;;;;4965884;28;20359;-64
2022/10/20 06:59:11;;;;;;;19.95;12.95;;;;;;;;;;4965665;28;20079;-64
2022/10/20 07:01:38;;;;;;;23.42;15.25;;;;;;;;;;4963468;28;20394;-64
2022/10/20 07:04:06;;;;;;;22.88;14.25;;;;;;;;;;4963915;28;20121;-64
2022/10/20 07:06:34;;;;;;;17.13;13.38;;;;;;;;;;4949477;28;20047;-64
2022/10/20 07:09:02;;;;;;;18.20;13.52;;;;;;;;;;4966322;28;20051;-59
2022/10/20 07:11:30;;;;;;;20.13;14.00;;;;;;;;;;4965780;28;20051;-59
2022/10/20 07:13:58;;;;;;;23.38;14.18;;;;;;;;;;4966347;28;20130;-63
2022/10/20 07:16:25;;;;;;;17.38;13.68;;;;;;;;;;4965485;28;20051;-64
2022/10/20 07:18:51;;;;;;;19.40;13.77;;;;;;;;;;4965134;28;21512;-64
2022/10/20 07:21:18;;;;;;;16.63;13.15;;;;;;;;;;4964903;28;20058;-63
2022/10/20 07:23:45;;;;;;;22.85;14.50;;;;;;;;;;4964333;28;20129;-64
2022/10/20 07:26:13;;;;;;;20.13;13.48;;;;;;;;;;4964158;28;20047;-64
2022/10/20 07:28:41;;;;;;;18.75;13.73;;;;;;;;;;4961334;28;20498;-64
2022/10/20 07:31:10;;;;;;;19.13;13.38;;;;;;;;;;4963750;28;20050;-64
2022/10/20 07:33:36;;;;;;;24.02;14.60;;;;;;;;;;4963183;28;20471;-65
2022/10/20 07:36:10;;;;;;;20.88;14.18;;;;;;;;;;4957097;28;20052;-64
2022/10/20 07:38:36;;;;;;;;;;;;;;;;;;4963710;28;20109;-64
2022/10/20 07:41:02;;;;;;;20.80;15.02;;;;;;;;;;4949204;28;19932;-64
2022/10/20 07:43:28;;;;;;;23.77;14.15;;;;;;;;;;4948469;28;20051;-64
2022/10/20 07:45:54;;;;;;;21.55;15.50;;;;;;;;;;4949029;28;20118;-64
2022/10/20 07:48:20;;;;;;;22.05;15.55;;;;;;;;;;4966892;28;20046;-64
2022/10/20 07:50:46;;;;;;;24.85;14.90;;;;;;;;;;4967569;28;20507;-64
2022/10/20 07:53:13;;;;;;;25.13;14.68;;;;;;;;;;4970380;28;20494;-64
2022/10/20 07:55:39;;;;;;;20.10;14.05;;;;;;;;;;4971404;28;20411;-64
2022/10/20 07:58:05;;;;;;;19.27;13.70;;;;;;;;;;4955305;28;20405;-64
2022/10/20 08:00:31;;;;;;;20.05;14.23;;;;;;;;;;4951318;28;20124;-64
2022/10/20 08:02:57;;;;;;;20.73;14.50;;;;;;;;;;4966524;28;20089;-64
2022/10/20 08:05:23;;;;;;;23.25;14.77;;;;;;;;;;4967050;28;20363;-64
2022/10/20 08:07:50;;;;;;;19.38;14.73;;;;;;;;;;4970412;28;20069;-64
2022/10/20 08:10:16;;;;;;;22.30;14.15;;;;;;;;;;4970352;28;20047;-64
2022/10/20 08:12:42;;;;;;;21.88;14.85;;;;;;;;;;4969570;28;20051;-64
2022/10/20 08:15:08;;;;;;;20.48;14.95;;;;;;;;;;4968351;28;20474;-64
2022/10/20 08:17:34;;;;;;;20.67;14.75;;;;;;;;;;4953640;28;20073;-64
2022/10/20 08:20:01;;;;;;;20.08;14.70;;;;;;;;;;4951650;28;20185;-64
2022/10/20 08:22:27;;;;;;;23.92;14.13;;;;;;;;;;4951147;28;20137;-64
2022/10/20 08:24:53;;;;;;;38.10;15.80;;;;;;;;;;4967565;28;20050;-64
2022/10/20 08:27:19;;;;;;;21.20;13.50;;;;;;;;;;4950053;28;20053;-64
2022/10/20 08:29:45;;;;;;;20.15;13.68;;;;;;;;;;4968179;28;20078;-64
2022/10/20 08:32:13;;;;;;;20.15;14.77;;;;;;;;;;4958826;28;20113;-64
2022/10/20 08:34:39;;;;;;;20.08;13.80;;;;;;;;;;4967930;28;20126;-64
2022/10/20 08:37:05;;;;;;;24.50;14.48;;;;;;;;;;4968736;28;20066;-64
2022/10/20 08:39:32;;;;;;;20.75;13.30;;;;;;;;;;4969381;28;20034;-64
2022/10/20 08:41:59;;;;;;;17.17;13.23;;;;;;;;;;4966559;28;20054;-64
2022/10/20 08:44:28;;;;;;;19.90;13.38;;;;;;;;;;4966622;28;20043;-64
2022/10/20 08:46:55;;;;;;;24.88;14.05;;;;;;;;;;4968685;28;20047;-64
2022/10/20 08:49:23;;;;;;;20.75;13.07;;;;;;;;;;4967355;28;20068;-64
2022/10/20 08:51:49;;;;;;;17.98;12.63;;;;;;;;;;4965682;28;20051;-64
2022/10/20 08:54:16;;;;;;;18.83;13.02;;;;;;;;;;4966604;28;20483;-65
2022/10/20 08:56:43;;;;;;;17.52;12.52;;;;;;;;;;4964990;28;20046;-64
2022/10/20 08:59:23;;;;;;;14.80;12.13;;;;;;;;;;4967534;28;20061;-64
2022/10/20 09:01:49;;;;;;;19.80;12.85;;;;;;;;;;4966990;28;20037;-64
2022/10/20 09:04:18;;;;;;;16.48;12.95;;;;;;;;;;4965867;28;20051;-64
2022/10/20 09:06:46;;;;;;;18.17;11.93;;;;;;;;;;4965236;28;21996;-64
2022/10/20 09:09:16;;;;;;;19.42;11.95;;;;;;;;;;4963531;28;20133;-64
2022/10/20 09:11:43;;;;;;;16.27;11.43;;;;;;;;;;4963133;28;20509;-64
2022/10/20 09:14:11;;;;;;;15.40;11.25;;;;;;;;;;4967867;28;20043;-64
2022/10/20 09:16:39;;;;;;;20.25;13.05;;;;;;;;;;4962272;28;20054;-64
2022/10/20 09:19:07;;;;;;;16.52;11.48;;;;;;;;;;4969238;28;20422;-65
2022/10/20 09:21:34;;;;;;;18.55;11.82;;;;;;;;;;4968053;28;20427;-64
2022/10/20 09:24:02;;;;;;;15.55;11.57;;;;;;;;;;4966179;28;20078;-65
2022/10/20 09:26:29;;;;;;;16.08;12.27;;;;;;;;;;4966846;28;20070;-64
2022/10/20 09:29:04;;;;;;;15.73;11.45;;;;;;;;;;4968119;28;20434;-64
2022/10/20 09:31:31;;;;;;;20.77;11.40;;;;;;;;;;4967119;28;20062;-64
2022/10/20 09:33:58;;;;;;;14.77;11.13;;;;;;;;;;4960024;28;20094;-64
2022/10/20 09:36:28;;;;;;;14.35;10.52;;;;;;;;;;4948345;28;20042;-65
2022/10/20 09:38:54;;;;;;;19.05;10.93;;;;;;;;;;4964427;28;20047;-65
2022/10/20 09:41:24;;;;;;;14.75;11.20;;;;;;;;;;4950939;28;20074;-65
2022/10/20 09:43:54;;;;;;;14.77;10.70;;;;;;;;;;4952214;28;20050;-64
2022/10/20 09:46:22;;;;;;;19.65;11.20;;;;;;;;;;4943327;28;20477;-64
2022/10/20 09:48:49;;;;;;;17.65;10.57;;;;;;;;;;4964947;28;20108;-64
2022/10/20 09:51:22;;;;;;;22.35;11.13;;;;;;;;;;4962663;28;20069;-64
2022/10/20 09:53:49;;;;;;;13.63;10.85;;;;;;;;;;4964404;28;20064;-65
2022/10/20 09:56:23;;;;;;;17.63;10.50;;;;;;;;;;4968981;28;20386;-64
2022/10/20 09:58:50;;;;;;;12.93;9.38;;;;;;;;;;4966577;28;20416;-65
2022/10/20 10:01:17;;;;;;;19.80;9.73;;;;;;;;;;4951715;28;20163;-64
2022/10/20 10:03:44;;;;;;;14.18;9.60;;;;;;;;;;4967184;28;20043;-64
2022/10/20 10:06:31;;;;;;;13.13;9.25;;;;;;;;;;4948726;28;20114;-64
2022/10/20 10:08:59;;;;;;;12.68;9.43;;;;;;;;;;4967690;28;20130;-64
2022/10/20 10:11:28;;;;;;;21.25;9.18;;;;;;;;;;4967745;28;20498;-64
2022/10/20 10:13:54;;;;;;;14.35;10.48;;;;;;;;;;4963025;28;20043;-64
2022/10/20 10:16:22;;;;;;;15.93;9.25;;;;;;;;;;4949569;28;20045;-65
2022/10/20 10:18:57;;;;;;;12.07;9.55;;;;;;;;;;4964472;28;20574;-64
2022/10/20 10:21:24;;;;;;;13.52;9.20;;;;;;;;;;4964073;28;20038;-64
2022/10/20 10:23:52;;;;;;;15.65;9.50;;;;;;;;;;4967583;28;20067;-64
2022/10/20 10:26:33;;;;;;;17.15;10.10;;;;;;;;;;4966175;28;20125;-64
2022/10/20 10:29:00;;;;;;;13.52;8.98;;;;;;;;;;4949826;28;20043;-64
2022/10/20 10:31:26;;;;;;;12.88;8.85;;;;;;;;;;4967451;28;20379;-64
2022/10/20 10:33:54;;;;;;;13.27;9.00;;;;;;;;;;4963987;28;20093;-64
2022/10/20 10:36:27;;;;;;;10.90;8.68;;;;;;;;;;4967575;28;20053;-65
2022/10/20 10:38:55;;;;;;;12.50;9.30;;;;;;;;;;4948926;28;20054;-65
2022/10/20 10:41:24;;;;;;;11.95;8.73;;;;;;;;;;4965031;28;20050;-65
2022/10/20 10:43:59;;;;;;;13.60;8.32;;;;;;;;;;4967526;28;20147;-65
2022/10/20 10:46:27;;;;;;;13.45;9.00;;;;;;;;;;4965535;28;20054;-65
2022/10/20 10:49:02;;;;;;;12.70;8.77;;;;;;;;;;4966016;28;20128;-65
2022/10/20 10:51:34;;;;;;;11.52;8.52;;;;;;;;;;4967002;28;20042;-64
2022/10/20 10:54:19;;;;;;;11.30;8.32;;;;;;;;;;4967484;28;20047;-65
2022/10/20 10:56:48;;;;;;;14.35;8.57;;;;;;;;;;4946925;28;20086;-65
2022/10/20 10:59:15;;;;;;;15.00;8.48;;;;;;;;;;4967089;28;20106;-64
2022/10/20 11:01:44;;;;;;;13.68;9.55;;;;;;;;;;4968874;28;20043;-64
2022/10/20 11:04:20;;;;;;;14.35;8.43;;;;;;;;;;4968633;28;20130;-65
2022/10/20 11:06:46;;;;;;;13.73;8.68;;;;;;;;;;4968037;28;20519;-65
2022/10/20 11:09:34;;;;;;;14.25;9.38;;;;;;;;;;4941154;28;20134;-64
2022/10/20 11:12:08;;;;;;;13.82;9.10;;;;;;;;;;4946554;28;20109;-64
2022/10/20 11:14:46;;;;;;;14.40;8.38;;;;;;;;;;4950020;28;20039;-64
2022/10/20 11:17:23;;;;;;;10.27;7.85;;;;;;;;;;4945283;28;20153;-65
2022/10/20 11:20:00;;;;;;;15.93;8.60;;;;;;;;;;4970759;28;20045;-64
2022/10/20 11:22:32;;;;;;;13.30;8.20;;;;;;;;;;4963975;28;20125;-64
2022/10/20 11:24:59;;;;;;;12.75;8.82;;;;;;;;;;4962902;28;20185;-64
2022/10/20 11:27:26;;;;;;;13.73;8.88;;;;;;;;;;4963529;28;20070;-65
2022/10/20 11:30:03;;;;;;;14.05;9.00;;;;;;;;;;4945487;28;20046;-64
2022/10/20 11:32:33;;;;;;;12.80;8.85;;;;;;;;;;4951983;28;20119;-63
2022/10/20 11:35:03;;;;;;;12.23;8.98;;;;;;;;;;4958578;28;20374;-63
2022/10/20 11:37:43;;;;;;;13.85;8.75;;;;;;;;;;4961432;28;20126;-63
2022/10/20 11:40:09;;;;;;;15.63;8.93;;;;;;;;;;4964336;28;20137;-63
2022/10/20 11:42:35;;;;;;;20.30;10.38;;;;;;;;;;4963343;28;20049;-63
2022/10/20 11:45:04;;;;;;;15.88;10.07;;;;;;;;;;4964243;28;20118;-63
2022/10/20 11:47:35;;;;;;;14.98;8.98;;;;;;;;;;4965258;28;20125;-63
2022/10/20 11:50:03;;;;;;;13.75;9.65;;;;;;;;;;4964102;28;20521;-63
2022/10/20 11:52:43;;;;;;;14.68;9.48;;;;;;;;;;4964338;28;20129;-63
2022/10/20 11:55:26;;;;;;;18.42;10.25;;;;;;;;;;4945453;28;20050;-63
2022/10/20 11:58:06;;;;;;;14.57;9.93;;;;;;;;;;4962082;28;20097;-63
2022/10/20 12:00:32;;;;;;;16.40;10.40;;;;;;;;;;4963464;28;20462;-63
2022/10/20 12:03:11;;;;;;;13.80;9.90;;;;;;;;;;4961847;28;21185;-63
2022/10/20 12:05:48;;;;;;;15.80;10.60;;;;;;;;;;4961691;28;20050;-63
2022/10/20 12:08:23;;;;;;;16.20;10.15;;;;;;;;;;4965167;28;20386;-63
2022/10/20 12:10:55;;;;;;;17.00;10.93;;;;;;;;;;4964189;28;20053;-62
2022/10/20 12:13:23;;;;;;;13.50;9.73;;;;;;;;;;4965276;28;20043;-81
2022/10/20 12:15:51;;;;;;;15.13;9.55;;;;;;;;;;4963702;28;20049;-63
2022/10/20 12:18:23;;;;;;;12.95;9.75;;;;;;;;;;4963809;28;20046;-63
2022/10/20 12:20:51;;;;;;;13.98;9.90;;;;;;;;;;4964982;28;20034;-63
2022/10/20 12:23:36;;;;;;;15.40;11.13;;;;;;;;;;4965932;28;20093;-63
2022/10/20 12:26:02;;;;;;;18.30;10.45;;;;;;;;;;4963834;28;20043;-63
2022/10/20 12:28:29;;;;;;;17.73;10.15;;;;;;;;;;4963125;28;20058;-63
2022/10/20 12:30:55;;;;;;;13.50;9.48;;;;;;;;;;4965675;28;20073;-63
2022/10/20 12:33:36;;;;;;;13.95;10.20;;;;;;;;;;4966151;28;20051;-63
2022/10/20 12:36:25;;;;;;;16.45;10.65;;;;;;;;;;4965374;28;20047;-64
2022/10/20 12:38:53;;;;;;;16.98;10.73;;;;;;;;;;4954243;28;20042;-64
2022/10/20 12:41:32;;;;;;;24.10;11.98;;;;;;;;;;4949597;28;20185;-64
2022/10/20 12:44:01;;;;;;;15.75;12.32;;;;;;;;;;4969656;28;20065;-64
2022/10/20 12:46:30;;;;;;;20.15;12.70;;;;;;;;;;4968854;28;20371;-64
2022/10/20 12:48:58;;;;;;;20.30;14.27;;;;;;;;;;4965086;28;20051;-64
2022/10/20 12:51:31;;;;;;;20.88;14.05;;;;;;;;;;4965790;28;20046;-64
2022/10/20 12:54:00;;;;;;;20.15;14.00;;;;;;;;;;4946093;28;20051;-64
2022/10/20 12:56:31;;;;;;;20.60;13.85;;;;;;;;;;4966781;28;20043;-64
2022/10/20 12:59:19;;;;;;;21.20;14.73;;;;;;;;;;4968811;28;20086;-63
2022/10/20 13:02:06;;;;;;;21.20;14.18;;;;;;;;;;4966025;28;20158;-64
2022/10/20 13:04:51;;;;;;;21.70;15.48;;;;;;;;;;4965653;28;20133;-64
2022/10/20 13:07:37;;;;;;;23.58;15.95;;;;;;;;;;4966465;28;20082;-64
2022/10/20 13:10:23;;;;;;;21.63;16.38;;;;;;;;;;4965493;28;20039;-64
2022/10/20 13:12:49;;;;;;;25.95;16.13;;;;;;;;;;4948525;28;20117;-63
2022/10/20 13:15:17;;;;;;;20.52;15.77;;;;;;;;;;4950603;28;20483;-63
2022/10/20 13:17:57;;;;;;;22.48;16.45;;;;;;;;;;4951007;28;20550;-63
2022/10/20 13:20:38;;;;;;;24.10;17.50;;;;;;;;;;4967377;28;20403;-65
2022/10/20 13:23:04;;;;;;;23.42;17.08;;;;;;;;;;4946945;28;20132;-65
2022/10/20 13:25:35;;;;;;;25.75;17.85;;;;;;;;;;4948125;28;20054;-65
2022/10/20 13:28:03;;;;;;;23.38;17.60;;;;;;;;;;4962203;28;20043;-65
2022/10/20 13:30:30;;;;;;;26.38;17.33;;;;;;;;;;4962358;28;20123;-65
2022/10/20 13:33:03;;;;;;;28.20;19.45;;;;;;;;;;4964773;28;20134;-64
2022/10/20 13:35:36;;;;;;;24.73;18.17;;;;;;;;;;4969216;28;20059;-65
2022/10/20 13:38:09;;;;;;;26.33;17.95;;;;;;;;;;4949598;28;20383;-64
2022/10/20 13:40:42;;;;;;;30.55;20.35;;;;;;;;;;4965532;28;20045;-65
2022/10/20 13:43:23;;;;;;;25.83;20.93;;;;;;;;;;4966640;28;20129;-65
2022/10/20 13:45:49;;;;;;;31.48;20.02;;;;;;;;;;4949449;28;20485;-65
2022/10/20 13:48:23;;;;;;;31.25;20.85;;;;;;;;;;4965589;28;20054;-64
2022/10/20 13:50:56;;;;;;;33.60;21.27;;;;;;;;;;4949755;28;20038;-65
2022/10/20 13:53:28;;;;;;;29.17;20.75;;;;;;;;;;4946485;28;20451;-65
2022/10/20 13:55:57;;;;;;;32.35;21.75;;;;;;;;;;4964931;28;20138;-64
2022/10/20 13:58:23;;;;;;;34.97;22.02;;;;;;;;;;4948520;28;20120;-64
2022/10/20 14:01:04;;;;;;;32.13;22.45;;;;;;;;;;4965450;28;20034;-65
2022/10/20 14:03:31;;;;;;;32.60;22.85;;;;;;;;;;4966658;28;20095;-65
2022/10/20 14:05:58;;;;;;;34.95;22.95;;;;;;;;;;4966404;28;20039;-64
2022/10/20 14:08:24;;;;;;;34.45;23.88;;;;;;;;;;4966696;28;20050;-65
2022/10/20 14:10:53;;;;;;;43.10;24.63;;;;;;;;;;4967677;28;20228;-64
2022/10/20 14:13:21;;;;;;;36.97;25.50;;;;;;;;;;4965153;28;20509;-64
2022/10/20 14:15:48;;;;;;;39.80;24.45;;;;;;;;;;4949414;28;20046;-65
2022/10/20 14:18:20;;;;;;;38.35;25.45;;;;;;;;;;4944360;28;20125;-65
2022/10/20 14:20:53;;;;;;;37.55;24.75;;;;;;;;;;4958293;28;20046;-64
2022/10/20 14:23:20;;;;;;;43.70;27.30;;;;;;;;;;4963572;28;20126;-65
2022/10/20 14:25:48;;;;;;;42.78;26.52;;;;;;;;;;4964593;28;20115;-65
2022/10/20 14:28:17;;;;;;;45.80;27.42;;;;;;;;;;4959245;28;20042;-65
2022/10/20 14:30:44;;;;;;;45.03;27.15;;;;;;;;;;4964357;28;20054;-64
2022/10/20 14:33:14;;;;;;;46.55;27.45;;;;;;;;;;4957039;28;20510;-65